createdAt,value
2023-03-17T00:00:25.066Z,5.60
2023-03-17T00:02:52.124Z,5.60
2023-03-17T00:05:20.919Z,5.50
2023-03-17T00:07:48.634Z,5.40
2023-03-17T00:10:21.220Z,5.30
2023-03-17T00:12:49.906Z,5.20
2023-03-17T00:15:18.217Z,5.10
2023-03-17T00:17:45.765Z,5.00
2023-03-17T00:20:18.967Z,5.00
2023-03-17T00:22:46.217Z,4.90
2023-03-17T00:25:24.450Z,4.70
2023-03-17T00:27:51.658Z,4.70
2023-03-17T00:30:19.074Z,4.70
2023-03-17T00:32:46.608Z,4.60
2023-03-17T00:35:17.337Z,4.50
2023-03-17T00:37:45.141Z,4.50
2023-03-17T00:40:22.461Z,4.40
2023-03-17T00:42:51.110Z,4.30
2023-03-17T00:45:19.418Z,4.20
2023-03-17T00:47:46.435Z,4.10
2023-03-17T00:50:17.051Z,4.10
2023-03-17T00:52:45.705Z,4.00
2023-03-17T00:55:13.026Z,4.00
2023-03-17T00:57:40.315Z,4.00
2023-03-17T01:00:18.213Z,3.90
2023-03-17T01:02:45.650Z,3.90
2023-03-17T01:05:13.310Z,3.90
2023-03-17T01:07:41.004Z,3.90
2023-03-17T01:10:15.573Z,3.90
2023-03-17T01:12:42.973Z,3.90
2023-03-17T01:15:10.644Z,3.90
2023-03-17T01:17:38.091Z,3.90
2023-03-17T01:20:06.584Z,3.90
2023-03-17T01:22:33.520Z,3.80
2023-03-17T01:25:00.469Z,3.90
2023-03-17T01:27:27.192Z,3.90
2023-03-17T01:29:54.839Z,3.80
2023-03-17T01:32:22.319Z,3.80
2023-03-17T01:34:49.076Z,3.70
2023-03-17T01:37:15.901Z,3.70
2023-03-17T01:39:42.677Z,3.70
2023-03-17T01:42:10.421Z,3.60
2023-03-17T01:44:57.934Z,3.60
2023-03-17T01:47:27.622Z,3.60
2023-03-17T01:49:54.940Z,3.70
2023-03-17T01:52:23.440Z,3.70
2023-03-17T01:54:56.344Z,3.70
2023-03-17T01:57:33.870Z,3.70
2023-03-17T02:00:11.727Z,3.70
2023-03-17T02:02:41.918Z,3.90
2023-03-17T02:05:12.255Z,3.90
2023-03-17T02:07:40.917Z,3.90
2023-03-17T02:10:09.022Z,3.80
2023-03-17T02:12:36.711Z,3.80
2023-03-17T02:15:03.823Z,3.80
2023-03-17T02:17:30.571Z,3.80
2023-03-17T02:19:57.491Z,3.80
2023-03-17T02:22:24.637Z,3.70
2023-03-17T02:24:56.688Z,3.70
2023-03-17T02:27:33.863Z,3.60
2023-03-17T02:30:01.255Z,3.70
2023-03-17T02:32:28.121Z,3.60
2023-03-17T02:34:54.909Z,3.60
2023-03-17T02:37:21.796Z,3.60
2023-03-17T02:39:48.558Z,3.70
2023-03-17T02:42:15.319Z,3.60
2023-03-17T02:44:42.227Z,3.60
2023-03-17T02:47:09.116Z,3.60
2023-03-17T02:49:37.837Z,3.60
2023-03-17T02:52:05.666Z,3.50
2023-03-17T02:54:32.672Z,3.50
2023-03-17T02:57:00.630Z,3.40
2023-03-17T02:59:27.718Z,3.40
2023-03-17T03:01:56.074Z,3.30
2023-03-17T03:04:24.750Z,3.30
2023-03-17T03:06:51.676Z,3.30
2023-03-17T03:09:18.434Z,3.20
2023-03-17T03:11:45.229Z,3.10
2023-03-17T03:14:12.186Z,3.10
2023-03-17T03:16:39.597Z,3.10
2023-03-17T03:19:07.960Z,3.00
2023-03-17T03:21:34.930Z,3.00
2023-03-17T03:24:01.735Z,3.00
2023-03-17T03:26:28.510Z,3.00
2023-03-17T03:28:57.380Z,3.00
2023-03-17T03:31:24.669Z,3.00
2023-03-17T03:33:51.583Z,2.90
2023-03-17T03:36:18.704Z,2.90
2023-03-17T03:38:45.757Z,2.90
2023-03-17T03:41:13.183Z,2.90
2023-03-17T03:43:40.788Z,2.90
2023-03-17T03:46:08.042Z,2.90
2023-03-17T03:48:34.846Z,2.90
2023-03-17T03:51:02.690Z,2.90
2023-03-17T03:53:30.231Z,2.80
2023-03-17T03:55:57.204Z,2.80
2023-03-17T03:58:24.428Z,2.80
2023-03-17T05:01:27.169Z,1.60
2023-03-17T05:03:54.197Z,1.50
2023-03-17T05:06:21.406Z,1.50
2023-03-17T05:08:48.226Z,1.60
2023-03-17T05:11:15.757Z,1.40
2023-03-17T05:13:43.020Z,1.50
2023-03-17T05:16:11.077Z,1.50
2023-03-17T05:18:38.614Z,1.50
2023-03-17T05:21:06.436Z,0.90
2023-03-17T05:23:34.131Z,1.40
2023-03-17T05:26:01.229Z,1.30
2023-03-17T05:28:28.466Z,1.30
2023-03-17T05:30:55.707Z,1.30
2023-03-17T05:33:23.085Z,0.70
2023-03-17T05:35:50.280Z,1.10
2023-03-17T05:38:17.419Z,1.00
2023-03-17T05:40:44.439Z,1.20
2023-03-17T05:43:11.542Z,1.10
2023-03-17T05:45:39.188Z,1.00
2023-03-17T05:48:06.316Z,1.10
2023-03-17T05:50:33.823Z,1.00
2023-03-17T05:53:01.093Z,1.10
2023-03-17T05:55:27.900Z,1.10
2023-03-17T05:57:54.788Z,1.20
2023-03-17T06:00:23.156Z,1.30
2023-03-17T06:02:50.090Z,1.10
2023-03-17T06:05:16.912Z,1.40
2023-03-17T06:07:52.912Z,1.30
2023-03-17T06:10:23.246Z,1.60
2023-03-17T06:12:50.119Z,1.70
2023-03-17T06:15:17.286Z,1.80
2023-03-17T06:17:44.566Z,1.80
2023-03-17T06:20:12.354Z,1.90
2023-03-17T06:22:46.252Z,2.00
2023-03-17T06:25:19.355Z,2.10
2023-03-17T06:27:46.295Z,2.30
2023-03-17T06:30:13.518Z,2.50
2023-03-17T06:32:40.445Z,2.70
2023-03-17T06:35:07.846Z,2.70
2023-03-17T06:37:35.401Z,2.90
2023-03-17T06:40:04.439Z,3.00
2023-03-17T06:42:31.588Z,3.00
2023-03-17T06:44:58.442Z,3.20
2023-03-17T06:47:26.146Z,3.20
2023-03-17T06:49:53.817Z,3.10
2023-03-17T06:52:20.803Z,3.20
2023-03-17T06:54:48.002Z,3.30
2023-03-17T06:57:14.862Z,3.60
2023-03-17T06:59:41.753Z,3.90
2023-03-17T07:02:10.615Z,4.20
2023-03-17T07:04:38.421Z,4.50
2023-03-17T07:07:06.161Z,4.90
2023-03-17T07:09:34.421Z,5.10
2023-03-17T07:12:06.083Z,5.50
2023-03-17T07:14:35.695Z,5.70
2023-03-17T07:17:04.110Z,6.20
2023-03-17T07:19:31.310Z,6.40
2023-03-17T07:21:58.660Z,6.90
2023-03-17T07:24:26.625Z,7.40
2023-03-17T07:26:53.475Z,7.80
2023-03-17T07:29:21.391Z,8.30
2023-03-17T07:31:48.664Z,8.80
2023-03-17T07:34:16.672Z,9.00
2023-03-17T07:36:43.514Z,8.80
2023-03-17T07:39:12.098Z,9.00
2023-03-17T07:41:39.131Z,9.70
2023-03-17T07:44:05.944Z,10.10
2023-03-17T07:46:32.808Z,10.30
2023-03-17T07:48:59.847Z,10.50
2023-03-17T07:51:28.122Z,10.80
2023-03-17T07:54:03.244Z,11.20
2023-03-17T07:56:31.161Z,11.40
2023-03-17T07:58:59.090Z,12.30
2023-03-17T08:01:26.881Z,12.80
2023-03-17T08:03:54.595Z,13.50
2023-03-17T08:06:21.801Z,14.10
2023-03-17T08:08:48.832Z,14.70
2023-03-17T08:11:15.804Z,15.20
2023-03-17T08:13:42.704Z,15.30
2023-03-17T08:16:09.698Z,15.10
2023-03-17T08:18:38.042Z,14.60
2023-03-17T08:21:05.710Z,14.50
2023-03-17T08:23:33.293Z,14.20
2023-03-17T08:26:02.036Z,14.20
2023-03-17T08:28:29.229Z,14.30
2023-03-17T08:31:06.008Z,14.40
2023-03-17T08:33:32.896Z,14.70
2023-03-17T08:36:00.221Z,14.90
2023-03-17T08:38:26.995Z,15.30
2023-03-17T08:40:53.840Z,15.30
2023-03-17T08:43:20.638Z,15.20
2023-03-17T08:45:48.211Z,15.70
2023-03-17T08:48:15.405Z,15.30
2023-03-17T08:50:42.274Z,15.70
2023-03-17T08:53:09.572Z,15.50
2023-03-17T08:55:37.605Z,15.30
2023-03-17T08:58:05.313Z,15.50
2023-03-17T09:00:32.375Z,15.10
2023-03-17T09:03:00.045Z,14.60
2023-03-17T09:05:27.057Z,15.10
2023-03-17T09:07:53.964Z,15.80
2023-03-17T09:10:22.734Z,15.90
2023-03-17T09:12:51.622Z,15.70
2023-03-17T09:15:18.423Z,15.70
2023-03-17T09:17:45.184Z,15.30
2023-03-17T09:20:12.231Z,16.40
2023-03-17T09:22:39.163Z,16.50
2023-03-17T09:25:06.284Z,16.60
2023-03-17T09:27:33.098Z,17.90
2023-03-17T09:29:59.817Z,18.80
2023-03-17T09:32:27.391Z,19.70
2023-03-17T09:34:54.241Z,20.30
2023-03-17T09:37:21.429Z,21.70
2023-03-17T09:42:44.062Z,21.70
2023-03-17T09:45:19.938Z,22.80
2023-03-17T09:48:04.786Z,23.40
2023-03-17T09:50:38.927Z,23.40
2023-03-17T09:53:17.897Z,23.90
2023-03-17T09:55:47.771Z,24.10
2023-03-17T10:00:41.858Z,25.90
2023-03-17T10:03:10.842Z,26.60
2023-03-17T10:05:38.696Z,27.30
2023-03-17T10:08:30.157Z,26.70
2023-03-17T10:10:58.857Z,26.50
2023-03-17T10:13:41.592Z,26.30
2023-03-17T10:16:14.616Z,25.60
2023-03-17T10:18:49.777Z,26.20
2023-03-17T10:21:21.566Z,27.20
2023-03-17T10:23:48.758Z,27.10
2023-03-17T10:26:21.394Z,27.00
2023-03-17T10:28:48.250Z,26.80
2023-03-17T10:31:16.742Z,27.80
2023-03-17T10:33:48.370Z,27.60
2023-03-17T10:36:17.253Z,27.00
2023-03-17T10:38:54.249Z,25.80
2023-03-17T10:41:21.155Z,26.20
2023-03-17T10:43:50.778Z,27.10
2023-03-17T10:46:18.921Z,25.90
2023-03-17T10:48:52.991Z,25.90
2023-03-17T10:51:31.654Z,26.00
2023-03-17T10:54:08.173Z,26.00
2023-03-17T10:59:57.113Z,26.70
2023-03-17T11:02:29.337Z,26.70
2023-03-17T11:05:05.516Z,27.10
2023-03-17T11:07:40.421Z,25.80
2023-03-17T11:23:06.170Z,26.20
2023-03-17T11:25:38.094Z,25.70
2023-03-17T11:28:21.808Z,24.80
2023-03-17T11:31:18.218Z,25.30
2023-03-17T11:34:01.367Z,25.20
2023-03-17T11:37:00.157Z,25.80
2023-03-17T11:39:32.428Z,25.60
2023-03-17T11:42:07.026Z,26.50
2023-03-17T11:44:59.033Z,27.40
2023-03-17T11:47:36.606Z,27.40
2023-03-17T11:50:18.648Z,27.60
2023-03-17T11:52:53.272Z,27.50
2023-03-17T11:55:28.871Z,28.10
2023-03-17T11:57:58.637Z,27.50
2023-03-17T12:00:34.784Z,28.40
2023-03-17T12:03:14.869Z,28.00
2023-03-17T12:05:44.854Z,29.60
2023-03-17T12:08:20.790Z,29.60
2023-03-17T12:10:54.190Z,28.60
2023-03-17T12:13:28.419Z,28.60
2023-03-17T12:28:31.209Z,27.40
2023-03-17T12:31:12.507Z,27.20
2023-03-17T12:33:54.882Z,27.00
2023-03-17T12:36:22.557Z,27.30
2023-03-17T12:38:56.963Z,27.70
2023-03-17T12:41:28.830Z,28.60
2023-03-17T12:44:05.076Z,29.10
2023-03-17T12:46:48.216Z,29.50
2023-03-17T12:49:33.927Z,29.80
2023-03-17T12:52:10.295Z,29.40
2023-03-17T12:54:39.445Z,29.30
2023-03-17T12:57:22.876Z,29.40
2023-03-17T12:59:57.555Z,28.30
2023-03-17T13:02:37.724Z,26.90
2023-03-17T13:05:16.487Z,27.10
2023-03-17T13:08:01.572Z,27.50
2023-03-17T13:10:41.991Z,27.10
2023-03-17T13:13:28.155Z,27.00
2023-03-17T13:15:58.297Z,27.30
2023-03-17T13:18:40.536Z,26.30
2023-03-17T13:21:13.024Z,26.40
2023-03-17T13:23:54.996Z,26.30
2023-03-17T13:26:44.778Z,25.80
2023-03-17T13:29:26.855Z,25.50
2023-03-17T13:32:17.217Z,25.40
2023-03-17T13:34:55.685Z,26.00
2023-03-17T13:37:23.503Z,26.20
2023-03-17T13:39:50.366Z,26.50
2023-03-17T13:42:32.887Z,26.60
2023-03-17T13:45:21.956Z,26.70
2023-03-17T13:47:51.146Z,26.20
2023-03-17T13:50:25.460Z,26.30
2023-03-17T13:52:57.578Z,25.40
2023-03-17T13:55:24.461Z,25.20
2023-03-17T13:58:14.626Z,25.50
2023-03-17T14:00:45.334Z,25.50
2023-03-17T14:03:29.022Z,25.20
2023-03-17T14:05:56.200Z,25.20
2023-03-17T14:08:29.853Z,25.30
2023-03-17T14:11:00.666Z,25.40
2023-03-17T14:13:35.384Z,25.70
2023-03-17T14:16:07.387Z,25.60
2023-03-17T14:18:38.286Z,25.70
2023-03-17T14:21:11.657Z,25.90
2023-03-17T14:23:38.643Z,25.90
2023-03-17T14:26:07.225Z,25.90
2023-03-17T14:28:35.575Z,25.30
2023-03-17T14:31:05.581Z,25.10
2023-03-17T14:33:34.599Z,25.40
2023-03-17T14:36:03.037Z,25.60
2023-03-17T14:38:33.158Z,25.80
2023-03-17T14:41:18.770Z,26.00
2023-03-17T14:43:46.527Z,25.80
2023-03-17T14:46:30.706Z,25.20
2023-03-17T14:49:01.989Z,25.00
2023-03-17T14:51:33.186Z,24.80
2023-03-17T14:54:02.194Z,24.30
2023-03-17T14:56:35.888Z,24.20
2023-03-17T14:59:18.070Z,24.10
2023-03-17T15:01:48.731Z,24.30
2023-03-17T15:04:32.263Z,24.50
2023-03-17T15:07:02.605Z,24.50
2023-03-17T15:09:39.135Z,24.30
2023-03-17T15:12:16.326Z,24.00
2023-03-17T15:14:45.485Z,23.50
2023-03-17T15:17:28.909Z,23.30
2023-03-17T15:20:00.494Z,23.00
2023-03-17T15:22:44.634Z,23.00
2023-03-17T15:25:36.294Z,22.70
2023-03-17T15:28:12.348Z,22.90
2023-03-17T15:30:47.558Z,22.80
2023-03-17T15:40:43.868Z,22.60
2023-03-17T15:43:15.899Z,22.50
2023-03-17T15:45:44.836Z,22.20
2023-03-17T15:48:20.065Z,22.00
2023-03-17T15:50:49.295Z,21.60
2023-03-17T15:55:43.648Z,20.90
2023-03-17T15:58:10.511Z,20.90
2023-03-17T16:00:37.874Z,20.30
2023-03-17T16:03:24.173Z,20.20
2023-03-17T16:05:52.159Z,19.90
2023-03-17T16:08:19.119Z,19.80
2023-03-17T16:10:47.395Z,19.70
2023-03-17T16:13:14.523Z,19.50
2023-03-17T16:15:44.017Z,19.60
2023-03-17T16:18:16.815Z,19.50
2023-03-17T16:20:46.302Z,19.50
2023-03-17T16:23:15.522Z,19.30
2023-03-17T16:25:42.850Z,19.20
2023-03-17T16:28:22.663Z,19.20
2023-03-17T16:30:51.174Z,19.10
2023-03-17T16:33:20.685Z,19.00
2023-03-17T16:35:49.235Z,18.90
2023-03-17T16:38:18.200Z,18.50
2023-03-17T16:40:48.753Z,18.60
2023-03-17T16:43:25.634Z,18.30
2023-03-17T16:45:56.143Z,18.40
2023-03-17T17:13:02.979Z,17.40
2023-03-17T17:15:30.652Z,16.90
2023-03-17T17:18:01.086Z,16.70
2023-03-17T17:20:31.814Z,16.60
2023-03-17T17:22:59.882Z,16.40
2023-03-17T17:27:55.636Z,16.30
2023-03-17T17:30:25.628Z,16.30
2023-03-17T19:46:08.008Z,13.50
2023-03-17T19:48:36.494Z,13.40
2023-03-17T19:51:03.574Z,13.20
2023-03-17T19:53:30.435Z,13.00
2023-03-17T19:55:57.285Z,13.30
2023-03-17T19:58:24.589Z,12.60
2023-03-17T20:00:51.716Z,12.50
2023-03-17T20:03:18.873Z,12.40
2023-03-17T20:05:46.698Z,12.40
2023-03-17T20:08:14.617Z,12.40
2023-03-17T20:10:41.406Z,12.20
2023-03-17T20:13:09.233Z,11.10
2023-03-17T20:15:36.756Z,12.10
2023-03-17T20:18:03.949Z,12.00
2023-03-17T20:20:31.298Z,11.90
2023-03-17T20:23:01.030Z,11.90
2023-03-17T20:25:27.850Z,11.80
2023-03-17T20:27:55.179Z,11.60
2023-03-17T20:30:22.588Z,11.60
2023-03-17T20:32:49.532Z,11.60
2023-03-17T20:35:16.430Z,11.50
2023-03-17T20:37:43.263Z,11.40
2023-03-17T20:45:05.805Z,11.20
2023-03-17T20:47:32.554Z,11.10
2023-03-17T20:50:00.608Z,11.00
2023-03-17T21:19:38.481Z,10.60
2023-03-17T21:22:06.119Z,10.60
2023-03-17T22:46:03.709Z,9.80
2023-03-17T22:48:32.646Z,9.70
2023-03-17T22:51:04.466Z,9.60
2023-03-17T22:53:31.916Z,9.50
2023-03-17T22:55:59.661Z,9.40
2023-03-17T22:58:27.423Z,9.30
2023-03-17T23:00:55.376Z,9.30
2023-03-17T23:03:23.660Z,9.30
2023-03-17T23:05:53.092Z,9.30
2023-03-17T23:08:20.927Z,9.20
2023-03-17T23:10:50.012Z,9.10
2023-03-17T23:13:19.498Z,9.00
2023-03-17T23:15:47.474Z,8.90
2023-03-17T23:18:14.639Z,8.80
2023-03-17T23:20:42.024Z,8.80
2023-03-17T23:23:10.690Z,8.70
2023-03-17T23:25:38.466Z,8.60
2023-03-17T23:28:06.815Z,8.60
2023-03-17T23:30:34.509Z,8.50
2023-03-17T23:33:02.314Z,8.50
2023-03-17T23:35:29.215Z,8.50
2023-03-17T23:37:56.028Z,8.30
2023-03-17T23:40:23.631Z,8.20
2023-03-17T23:42:50.678Z,8.20
2023-03-17T23:45:18.105Z,8.10
2023-03-17T23:47:46.773Z,8.00
2023-03-17T23:50:14.861Z,8.00
2023-03-17T23:52:43.235Z,7.90
2023-03-17T23:55:11.878Z,7.90
2023-03-17T23:57:39.086Z,7.90
